createdAt,value
2018-09-05T00:01:17.883Z,2.30
2018-09-05T00:03:47.007Z,2.90
2018-09-05T00:06:16.049Z,2.50
2018-09-05T00:08:45.092Z,2.35
2018-09-05T00:11:14.492Z,2.98
2018-09-05T00:13:43.591Z,2.83
2018-09-05T00:16:12.741Z,3.30
2018-09-05T00:18:41.841Z,2.80
2018-09-05T00:21:10.797Z,2.70
2018-09-05T00:23:39.736Z,3.05
2018-09-05T00:26:08.677Z,3.75
2018-09-05T00:28:37.646Z,3.12
2018-09-05T00:31:09.747Z,2.95
2018-09-05T00:33:38.823Z,3.30
2018-09-05T00:36:08.224Z,2.80
2018-09-05T00:38:37.336Z,3.75
2018-09-05T00:41:06.350Z,3.50
2018-09-05T00:43:35.349Z,3.15
2018-09-05T00:46:04.301Z,3.67
2018-09-05T00:48:33.356Z,3.52
2018-09-05T00:51:02.338Z,3.47
2018-09-05T00:53:31.283Z,3.12
2018-09-05T00:56:00.347Z,2.90
2018-09-05T00:58:29.297Z,3.42
2018-09-05T01:00:58.381Z,3.70
2018-09-05T01:03:27.375Z,3.60
2018-09-05T01:05:56.429Z,3.27
2018-09-05T01:08:25.464Z,2.90
2018-09-05T01:10:54.450Z,3.77
2018-09-05T01:13:23.429Z,3.42
2018-09-05T01:15:52.394Z,3.35
2018-09-05T01:18:21.376Z,3.50
2018-09-05T01:20:50.375Z,3.27
2018-09-05T01:23:19.392Z,3.40
2018-09-05T01:25:48.350Z,3.47
2018-09-05T01:28:17.370Z,3.50
2018-09-05T01:30:46.679Z,3.52
2018-09-05T01:33:15.660Z,3.77
2018-09-05T01:35:44.850Z,3.37
2018-09-05T01:38:14.102Z,4.70
2018-09-05T01:40:43.006Z,4.03
2018-09-05T01:43:11.939Z,3.92
2018-09-05T01:45:41.110Z,3.55
2018-09-05T01:48:10.204Z,3.33
2018-09-05T01:50:43.825Z,3.60
2018-09-05T01:53:13.447Z,4.05
2018-09-05T01:55:42.441Z,3.67
2018-09-05T01:58:11.453Z,4.30
2018-09-05T02:00:40.431Z,4.90
2018-09-05T02:03:09.493Z,4.47
2018-09-05T02:05:38.414Z,4.35
2018-09-05T02:08:07.365Z,3.90
2018-09-05T02:10:36.322Z,4.28
2018-09-05T02:13:05.328Z,3.95
2018-09-05T02:15:34.666Z,4.40
2018-09-05T02:18:03.878Z,4.00
2018-09-05T02:20:32.880Z,4.12
2018-09-05T02:23:01.990Z,4.30
2018-09-05T02:25:31.031Z,5.40
2018-09-05T02:28:00.091Z,4.50
2018-09-05T02:30:29.112Z,4.50
2018-09-05T02:32:58.329Z,4.75
2018-09-05T02:35:27.386Z,4.30
2018-09-05T02:37:56.733Z,4.72
2018-09-05T02:40:25.851Z,3.77
2018-09-05T02:42:54.710Z,4.33
2018-09-05T02:45:23.818Z,4.35
2018-09-05T02:47:52.900Z,4.78
2018-09-05T02:50:21.864Z,4.60
2018-09-05T02:52:50.892Z,5.15
2018-09-05T02:55:25.309Z,5.10
2018-09-05T02:57:54.276Z,4.53
2018-09-05T03:00:23.245Z,4.85
2018-09-05T03:02:52.294Z,4.50
2018-09-05T03:05:21.215Z,4.30
2018-09-05T03:07:50.150Z,4.93
2018-09-05T03:10:19.549Z,4.20
2018-09-05T03:12:48.433Z,5.60
2018-09-05T03:15:17.487Z,5.40
2018-09-05T03:17:46.489Z,4.40
2018-09-05T03:20:15.446Z,4.40
2018-09-05T03:22:44.424Z,4.60
2018-09-05T03:25:13.482Z,5.07
2018-09-05T03:27:42.531Z,4.93
2018-09-05T03:30:11.816Z,4.83
2018-09-05T03:32:40.897Z,5.53
2018-09-05T03:35:09.775Z,5.07
2018-09-05T03:37:38.719Z,4.47
2018-09-05T03:40:07.618Z,4.97
2018-09-05T03:42:36.621Z,4.72
2018-09-05T03:45:05.659Z,4.67
2018-09-05T03:47:34.709Z,5.30
2018-09-05T03:50:03.625Z,4.97
2018-09-05T03:52:33.123Z,5.70
2018-09-05T03:55:02.217Z,5.03
2018-09-05T03:57:31.239Z,4.92
2018-09-05T04:00:00.244Z,5.70
2018-09-05T04:02:29.174Z,5.87
2018-09-05T04:04:59.034Z,4.87
2018-09-05T04:07:28.616Z,5.27
2018-09-05T04:09:57.647Z,6.05
2018-09-05T04:12:27.066Z,6.25
2018-09-05T04:14:56.339Z,5.70
2018-09-05T04:17:25.545Z,5.47
2018-09-05T04:19:54.625Z,6.93
2018-09-05T04:22:23.559Z,6.23
2018-09-05T04:24:52.531Z,5.27
2018-09-05T04:27:21.497Z,5.47
2018-09-05T04:29:50.472Z,6.47
2018-09-05T04:32:19.369Z,6.67
2018-09-05T04:34:48.292Z,6.33
2018-09-05T04:37:17.255Z,6.30
2018-09-05T04:39:46.222Z,5.33
2018-09-05T04:42:15.152Z,6.53
2018-09-05T04:44:44.164Z,7.10
2018-09-05T04:47:13.145Z,7.30
2018-09-05T04:49:42.055Z,6.63
2018-09-05T04:52:11.010Z,6.50
2018-09-05T04:54:39.982Z,6.07
2018-09-05T04:57:08.981Z,6.93
2018-09-05T04:59:37.952Z,6.10
2018-09-05T05:02:06.866Z,5.67
2018-09-05T05:04:35.885Z,6.90
2018-09-05T05:07:04.838Z,6.20
2018-09-05T05:09:33.732Z,6.27
2018-09-05T05:12:02.737Z,6.30
2018-09-05T05:14:31.652Z,6.43
2018-09-05T05:17:00.582Z,6.30
2018-09-05T05:19:29.588Z,6.00
2018-09-05T05:21:58.995Z,5.70
2018-09-05T05:24:28.003Z,5.87
2018-09-05T05:26:56.994Z,5.40
2018-09-05T05:29:26.109Z,5.07
2018-09-05T05:31:55.034Z,5.40
2018-09-05T05:34:24.006Z,5.65
2018-09-05T05:36:52.899Z,5.93
2018-09-05T05:39:21.921Z,5.57
2018-09-05T05:41:50.825Z,5.20
2018-09-05T05:44:19.785Z,5.40
2018-09-05T05:46:48.810Z,5.43
2018-09-05T05:49:17.733Z,5.53
2018-09-05T05:51:46.642Z,5.00
2018-09-05T05:54:15.547Z,4.83
2018-09-05T05:56:44.519Z,5.20
2018-09-05T05:59:13.438Z,4.67
2018-09-05T06:01:42.423Z,5.03
2018-09-05T06:04:11.411Z,4.87
2018-09-05T06:06:40.341Z,5.27
2018-09-05T06:09:10.350Z,4.97
2018-09-05T06:11:39.392Z,5.95
2018-09-05T06:14:08.375Z,4.83
2018-09-05T06:16:37.990Z,4.17
2018-09-05T06:19:06.877Z,5.13
2018-09-05T06:21:35.815Z,4.53
2018-09-05T06:24:05.149Z,4.63
2018-09-05T06:26:34.034Z,5.60
2018-09-05T06:29:02.979Z,5.83
2018-09-05T06:31:31.957Z,4.47
2018-09-05T06:34:00.865Z,4.47
2018-09-05T06:36:29.833Z,4.30
2018-09-05T06:38:59.433Z,3.98
2018-09-05T06:41:28.319Z,4.80
2018-09-05T06:43:57.409Z,4.90
2018-09-05T06:46:26.402Z,4.70
2018-09-05T06:48:55.343Z,4.97
2018-09-05T06:51:24.398Z,4.45
2018-09-05T06:53:53.414Z,4.30
2018-09-05T06:56:22.382Z,4.30
2018-09-05T06:58:51.408Z,4.13
2018-09-05T07:01:20.428Z,4.40
2018-09-05T07:03:49.600Z,4.30
2018-09-05T07:06:18.551Z,4.90
2018-09-05T07:08:47.521Z,5.35
2018-09-05T07:11:16.454Z,4.03
2018-09-05T07:13:45.441Z,3.73
2018-09-05T07:16:14.454Z,4.77
2018-09-05T07:18:43.381Z,4.50
2018-09-05T07:21:12.381Z,4.05
2018-09-05T07:23:41.480Z,4.50
2018-09-05T07:26:10.405Z,4.45
2018-09-05T07:28:39.341Z,4.20
2018-09-05T07:31:08.386Z,4.20
2018-09-05T07:33:37.306Z,4.20
2018-09-05T07:36:06.231Z,3.70
2018-09-05T07:38:35.181Z,4.10
2018-09-05T07:41:04.156Z,3.90
2018-09-05T07:43:33.142Z,3.77
2018-09-05T07:46:02.032Z,3.90
2018-09-05T07:48:31.009Z,4.60
2018-09-05T07:51:00.059Z,3.80
2018-09-05T07:53:28.904Z,4.78
2018-09-05T07:55:58.006Z,4.20
2018-09-05T07:58:27.230Z,4.22
2018-09-05T08:00:56.214Z,4.50
2018-09-05T08:03:25.154Z,4.45
2018-09-05T08:05:54.595Z,5.05
2018-09-05T08:08:23.606Z,4.37
2018-09-05T08:10:52.676Z,3.85
2018-09-05T08:13:21.607Z,4.33
2018-09-05T08:15:50.517Z,3.60
2018-09-05T08:18:19.466Z,3.37
2018-09-05T08:20:48.364Z,3.50
2018-09-05T08:23:17.437Z,3.10
2018-09-05T08:25:46.363Z,3.52
2018-09-05T08:28:15.277Z,3.47
2018-09-05T08:30:44.513Z,3.33
2018-09-05T08:33:13.408Z,3.70
2018-09-05T08:35:42.578Z,3.10
2018-09-05T08:38:11.334Z,3.08
2018-09-05T08:40:40.212Z,3.00
2018-09-05T08:43:09.130Z,2.83
2018-09-05T08:45:38.272Z,2.98
2018-09-05T08:48:07.006Z,2.92
2018-09-05T08:50:35.940Z,3.42
2018-09-05T08:53:05.168Z,2.80
2018-09-05T08:55:34.071Z,3.20
2018-09-05T08:58:03.006Z,2.92
2018-09-05T09:00:31.909Z,3.00
2018-09-05T09:03:00.911Z,3.02
2018-09-05T09:05:29.884Z,3.02
2018-09-05T09:07:58.858Z,2.60
2018-09-05T09:10:27.826Z,2.95
2018-09-05T09:12:56.787Z,2.65
2018-09-05T09:15:25.698Z,2.67
2018-09-05T09:17:54.655Z,2.85
2018-09-05T09:20:23.890Z,2.70
2018-09-05T09:22:52.825Z,3.10
2018-09-05T09:25:21.744Z,3.15
2018-09-05T09:27:50.717Z,2.70
2018-09-05T09:30:19.623Z,3.00
2018-09-05T09:32:48.613Z,2.72
2018-09-05T09:35:17.537Z,2.90
2018-09-05T09:37:46.458Z,2.70
2018-09-05T09:40:15.428Z,2.50
2018-09-05T09:42:44.391Z,2.50
2018-09-05T09:45:13.279Z,2.55
2018-09-05T09:47:42.201Z,2.65
2018-09-05T09:50:11.135Z,2.37
2018-09-05T09:52:40.056Z,2.90
2018-09-05T09:55:10.070Z,2.77
2018-09-05T09:57:39.029Z,3.17
2018-09-05T10:00:08.165Z,2.85
2018-09-05T10:02:42.744Z,2.55
2018-09-05T10:05:17.147Z,2.60
2018-09-05T10:07:51.438Z,2.42
2018-09-05T10:10:25.820Z,2.70
2018-09-05T10:13:00.125Z,2.25
2018-09-05T10:15:34.372Z,3.08
2018-09-05T10:18:08.663Z,3.17
2018-09-05T10:20:37.660Z,2.92
2018-09-05T10:23:06.610Z,3.10
2018-09-05T10:25:35.578Z,2.70
2018-09-05T10:28:04.810Z,2.55
2018-09-05T10:30:33.754Z,2.25
2018-09-05T10:35:42.368Z,2.10
2018-09-05T10:38:11.286Z,2.35
2018-09-05T10:40:40.229Z,2.60
2018-09-05T10:43:09.186Z,2.33
2018-09-05T10:45:38.081Z,2.58
2018-09-05T10:48:06.986Z,2.25
2018-09-05T10:50:35.984Z,2.60
2018-09-05T10:53:05.109Z,2.80
2018-09-05T10:55:34.059Z,2.08
2018-09-05T10:58:03.050Z,2.58
2018-09-05T11:00:31.979Z,2.20
2018-09-05T11:03:00.960Z,3.27
2018-09-05T11:05:29.893Z,2.15
2018-09-05T11:07:59.129Z,2.30
2018-09-05T11:10:28.064Z,1.65
2018-09-05T11:12:57.001Z,2.52
2018-09-05T11:15:25.974Z,2.17
2018-09-05T11:17:54.974Z,2.33
2018-09-05T11:20:24.059Z,2.35
2018-09-05T11:22:52.958Z,2.27
2018-09-05T11:25:21.932Z,2.22
2018-09-05T11:27:50.864Z,2.20
2018-09-05T11:30:19.815Z,2.12
2018-09-05T11:32:48.744Z,2.20
2018-09-05T11:35:17.702Z,2.27
2018-09-05T11:37:46.617Z,2.50
2018-09-05T11:40:15.538Z,2.60
2018-09-05T11:42:44.582Z,2.42
2018-09-05T11:45:13.490Z,2.22
2018-09-05T11:47:42.440Z,2.27
2018-09-05T11:50:11.599Z,2.25
2018-09-05T11:52:40.503Z,2.10
2018-09-05T11:55:09.514Z,2.37
2018-09-05T11:57:38.446Z,2.25
2018-09-05T12:00:07.428Z,2.37
2018-09-05T12:02:36.687Z,2.00
2018-09-05T12:05:05.704Z,2.50
2018-09-05T12:07:34.549Z,1.80
2018-09-05T12:10:03.518Z,2.40
2018-09-05T12:12:32.465Z,1.87
2018-09-05T12:15:01.434Z,1.92
2018-09-05T12:17:30.314Z,1.92
2018-09-05T12:19:59.338Z,2.08
2018-09-05T12:22:28.306Z,1.80
2018-09-05T12:24:57.316Z,2.02
2018-09-05T12:27:26.247Z,2.00
2018-09-05T12:29:55.237Z,2.00
2018-09-05T12:32:24.127Z,2.15
2018-09-05T12:34:53.101Z,2.20
2018-09-05T12:37:22.093Z,2.22
2018-09-05T12:39:51.024Z,2.00
2018-09-05T12:42:19.999Z,2.10
2018-09-05T12:44:49.072Z,2.25
2018-09-05T12:47:18.170Z,2.20
2018-09-05T12:49:47.098Z,2.12
2018-09-05T12:52:16.004Z,2.10
2018-09-05T12:54:45.217Z,2.08
2018-09-05T12:57:14.161Z,2.35
2018-09-05T12:59:43.077Z,1.70
2018-09-05T13:02:12.079Z,1.85
2018-09-05T13:04:41.139Z,2.05
2018-09-05T13:07:10.109Z,2.33
2018-09-05T13:09:39.078Z,2.12
2018-09-05T13:12:08.128Z,2.17
2018-09-05T13:14:37.078Z,2.15
2018-09-05T13:17:06.019Z,2.00
2018-09-05T13:19:35.019Z,1.92
2018-09-05T13:22:04.332Z,1.95
2018-09-05T13:24:33.258Z,1.82
2018-09-05T13:27:02.283Z,1.80
2018-09-05T13:29:31.180Z,2.30
2018-09-05T13:32:00.800Z,1.90
2018-09-05T13:34:29.712Z,1.70
2018-09-05T13:36:58.691Z,2.20
2018-09-05T13:39:27.651Z,2.05
2018-09-05T13:41:56.572Z,2.02
2018-09-05T13:44:25.487Z,2.25
2018-09-05T13:46:54.440Z,2.27
2018-09-05T13:49:23.423Z,2.30
2018-09-05T13:51:57.580Z,2.35
2018-09-05T13:54:26.535Z,2.17
2018-09-05T13:56:55.505Z,2.17
2018-09-05T13:59:24.474Z,2.00
2018-09-05T14:01:53.645Z,1.90
2018-09-05T14:04:23.769Z,2.10
2018-09-05T14:06:52.691Z,2.00
2018-09-05T14:09:21.638Z,2.00
2018-09-05T14:11:50.639Z,2.00
2018-09-05T14:14:19.599Z,2.05
2018-09-05T14:16:48.603Z,2.58
2018-09-05T14:19:17.500Z,1.98
2018-09-05T14:21:46.458Z,2.35
2018-09-05T14:24:15.355Z,2.15
2018-09-05T14:26:44.270Z,2.20
2018-09-05T14:29:13.302Z,1.67
2018-09-05T14:31:42.429Z,2.12
2018-09-05T14:34:11.436Z,2.45
2018-09-05T14:36:40.349Z,1.95
2018-09-05T14:39:11.948Z,1.72
2018-09-05T14:41:41.047Z,2.08
2018-09-05T14:44:10.282Z,2.15
2018-09-05T14:46:39.245Z,2.65
2018-09-05T14:49:08.172Z,2.00
2018-09-05T14:51:37.179Z,2.30
2018-09-05T14:54:10.063Z,1.70
2018-09-05T14:56:39.006Z,2.02
2018-09-05T14:59:07.920Z,2.20
2018-09-05T15:01:36.952Z,2.22
2018-09-05T15:04:05.955Z,1.82
2018-09-05T15:06:34.981Z,2.02
2018-09-05T15:09:04.660Z,1.70
2018-09-05T15:11:33.594Z,1.80
2018-09-05T15:14:02.577Z,2.30
2018-09-05T15:16:31.470Z,1.57
2018-09-05T15:19:00.562Z,1.87
2018-09-05T15:21:29.534Z,2.20
2018-09-05T15:23:58.469Z,1.67
2018-09-05T15:26:27.439Z,1.85
2018-09-05T15:28:56.379Z,1.72
2018-09-05T15:31:25.315Z,2.92
2018-09-05T15:33:54.211Z,1.80
2018-09-05T15:36:23.169Z,2.02
2018-09-05T15:38:52.456Z,1.92
2018-09-05T15:41:21.371Z,1.98
2018-09-05T15:43:50.263Z,1.80
2018-09-05T15:46:19.227Z,1.95
2018-09-05T15:48:48.129Z,2.10
2018-09-05T15:51:17.060Z,1.95
2018-09-05T15:53:46.026Z,1.70
2018-09-05T15:56:14.962Z,2.05
2018-09-05T15:58:44.107Z,1.82
2018-09-05T16:01:13.323Z,2.10
2018-09-05T16:03:42.333Z,1.90
2018-09-05T16:06:11.187Z,1.67
2018-09-05T16:08:40.115Z,1.47
2018-09-05T16:11:09.081Z,1.82
2018-09-05T16:13:38.253Z,1.90
2018-09-05T16:16:07.223Z,1.90
2018-09-05T16:18:36.180Z,1.70
2018-09-05T16:21:05.234Z,2.00
2018-09-05T16:23:34.139Z,1.85
2018-09-05T16:26:03.102Z,1.87
2018-09-05T16:28:32.036Z,1.67
2018-09-05T16:31:00.964Z,1.92
2018-09-05T16:33:29.897Z,1.72
2018-09-05T16:35:58.806Z,1.67
2018-09-05T16:38:27.763Z,1.70
2018-09-05T16:40:56.694Z,1.87
2018-09-05T16:43:25.737Z,1.90
2018-09-05T16:45:54.799Z,1.92
2018-09-05T16:48:23.736Z,1.90
2018-09-05T16:50:52.793Z,1.57
2018-09-05T16:53:21.730Z,1.90
2018-09-05T16:55:50.647Z,1.72
2018-09-05T16:58:19.675Z,2.10
2018-09-05T17:00:48.777Z,1.50
2018-09-05T17:03:17.801Z,2.27
2018-09-05T17:05:46.767Z,2.10
2018-09-05T17:08:15.739Z,1.80
2018-09-05T17:10:44.695Z,1.87
2018-09-05T17:13:13.642Z,1.87
2018-09-05T17:15:42.580Z,2.00
2018-09-05T17:18:11.574Z,1.72
2018-09-05T17:20:40.542Z,1.90
2018-09-05T17:23:10.129Z,1.90
2018-09-05T17:25:39.122Z,1.98
2018-09-05T17:28:08.084Z,1.50
2018-09-05T17:30:37.047Z,1.60
2018-09-05T17:33:05.999Z,1.98
2018-09-05T17:35:35.127Z,2.00
2018-09-05T17:38:04.407Z,1.90
2018-09-05T17:40:33.400Z,1.57
2018-09-05T17:43:02.367Z,1.80
2018-09-05T17:45:31.353Z,1.80
2018-09-05T17:48:00.313Z,2.27
2018-09-05T17:50:29.258Z,1.87
2018-09-05T17:52:58.224Z,1.98
2018-09-05T17:55:27.125Z,1.70
2018-09-05T17:57:56.377Z,1.92
2018-09-05T18:00:25.294Z,2.12
2018-09-05T18:02:54.298Z,2.00
2018-09-05T18:05:23.259Z,1.80
2018-09-05T18:07:52.218Z,1.72
2018-09-05T18:10:21.123Z,1.90
2018-09-05T18:12:50.056Z,1.70
2018-09-05T18:15:19.023Z,1.72
2018-09-05T18:17:48.298Z,1.57
2018-09-05T18:20:17.248Z,2.27
2018-09-05T18:22:46.795Z,1.52
2018-09-05T18:25:15.839Z,1.85
2018-09-05T18:27:44.798Z,2.08
2018-09-05T18:30:13.773Z,2.02
2018-09-05T18:32:42.763Z,2.17
2018-09-05T18:35:11.807Z,1.45
2018-09-05T18:37:40.784Z,2.12
2018-09-05T18:40:09.840Z,1.90
2018-09-05T18:42:38.794Z,2.00
2018-09-05T18:45:08.304Z,2.05
2018-09-05T18:47:37.245Z,2.10
2018-09-05T18:50:06.250Z,1.82
2018-09-05T18:52:35.282Z,2.45
2018-09-05T18:55:04.220Z,2.45
2018-09-05T18:57:33.182Z,1.98
2018-09-05T19:00:02.137Z,2.17
2018-09-05T19:02:31.136Z,2.00
2018-09-05T19:05:00.099Z,5.37
2018-09-05T19:07:29.326Z,2.10
2018-09-05T19:09:58.315Z,2.45
2018-09-05T19:12:27.772Z,1.95
2018-09-05T19:14:56.773Z,2.25
2018-09-05T19:17:25.742Z,2.70
2018-09-05T19:19:54.740Z,4.12
2018-09-05T19:22:23.768Z,2.27
2018-09-05T19:24:52.741Z,2.37
2018-09-05T19:27:21.789Z,2.00
2018-09-05T19:29:50.769Z,1.65
2018-09-05T19:32:20.889Z,1.80
2018-09-05T19:34:49.883Z,1.82
2018-09-05T19:37:19.681Z,2.35
2018-09-05T19:39:48.908Z,2.40
2018-09-05T19:42:17.888Z,1.82
2018-09-05T19:44:46.854Z,2.02
2018-09-05T19:47:16.476Z,1.92
2018-09-05T19:49:45.469Z,1.98
2018-09-05T19:52:14.425Z,2.17
2018-09-05T19:54:43.399Z,1.90
2018-09-05T19:57:13.211Z,2.12
2018-09-05T19:59:42.175Z,2.47
2018-09-05T20:02:11.142Z,1.75
2018-09-05T20:04:40.150Z,1.87
2018-09-05T20:07:09.130Z,2.30
2018-09-05T20:09:38.086Z,2.08
2018-09-05T20:12:07.011Z,2.37
2018-09-05T20:14:36.033Z,1.95
2018-09-05T20:17:05.223Z,2.10
2018-09-05T20:19:34.187Z,2.30
2018-09-05T20:22:03.152Z,1.77
2018-09-05T20:24:32.146Z,1.95
2018-09-05T20:27:01.065Z,2.55
2018-09-05T20:29:30.386Z,2.40
2018-09-05T20:31:59.373Z,1.87
2018-09-05T20:34:28.421Z,1.90
2018-09-05T20:36:57.418Z,1.92
2018-09-05T20:39:26.391Z,1.92
2018-09-05T20:41:55.356Z,2.22
2018-09-05T20:44:24.351Z,2.50
2018-09-05T20:46:53.283Z,2.30
2018-09-05T20:49:22.293Z,2.05
2018-09-05T20:51:51.260Z,2.25
2018-09-05T20:54:20.176Z,2.30
2018-09-05T20:56:49.916Z,1.90
2018-09-05T20:59:18.929Z,2.58
2018-09-05T21:01:47.854Z,2.67
2018-09-05T21:04:16.845Z,2.30
2018-09-05T21:06:45.790Z,2.05
2018-09-05T21:09:14.796Z,2.30
2018-09-05T21:11:43.850Z,2.20
2018-09-05T21:14:12.786Z,2.15
2018-09-05T21:16:41.737Z,1.90
2018-09-05T21:19:10.652Z,2.10
2018-09-05T21:21:39.716Z,2.20
2018-09-05T21:24:08.732Z,2.35
2018-09-05T21:26:37.819Z,2.12
2018-09-05T21:29:06.783Z,2.40
2018-09-05T21:31:35.742Z,1.65
2018-09-05T21:34:04.692Z,2.20
2018-09-05T21:36:33.851Z,2.42
2018-09-05T21:39:02.846Z,1.90
2018-09-05T21:41:31.820Z,2.10
2018-09-05T21:44:00.834Z,2.05
2018-09-05T21:46:29.820Z,2.20
2018-09-05T21:48:58.809Z,2.17
2018-09-05T21:51:28.102Z,1.87
2018-09-05T21:53:57.028Z,2.27
2018-09-05T21:56:25.996Z,2.25
2018-09-05T21:58:54.989Z,1.90
2018-09-05T22:01:24.361Z,2.05
2018-09-05T22:03:53.564Z,2.33
2018-09-05T22:06:22.614Z,2.10
2018-09-05T22:08:51.678Z,2.10
2018-09-05T22:11:26.894Z,1.75
2018-09-05T22:13:56.578Z,1.70
2018-09-05T22:16:25.840Z,1.87
2018-09-05T22:18:54.958Z,1.72
2018-09-05T22:21:23.872Z,2.35
2018-09-05T22:23:54.522Z,2.00
2018-09-05T22:26:23.746Z,1.92
2018-09-05T22:28:53.523Z,2.08
2018-09-05T22:31:22.993Z,2.12
2018-09-05T22:33:52.548Z,2.15
2018-09-05T22:36:23.804Z,2.27
2018-09-05T22:38:52.792Z,2.22
2018-09-05T22:41:21.861Z,2.22
2018-09-05T22:44:02.013Z,2.70
2018-09-05T22:46:42.402Z,2.10
2018-09-05T22:49:24.460Z,1.87
2018-09-05T22:52:16.693Z,2.00
2018-09-05T22:57:05.744Z,2.20
2018-09-05T22:59:47.488Z,1.80
2018-09-05T23:02:57.796Z,2.08
2018-09-05T23:05:54.845Z,2.70
2018-09-05T23:08:37.619Z,2.08
2018-09-05T23:11:18.681Z,2.17
2018-09-05T23:13:59.858Z,3.10
2018-09-05T23:16:40.501Z,1.90
2018-09-05T23:19:32.437Z,2.10
2018-09-05T23:22:01.343Z,2.17
2018-09-05T23:24:30.264Z,2.10
2018-09-05T23:26:59.225Z,2.45
2018-09-05T23:29:28.128Z,2.12
2018-09-05T23:31:57.047Z,2.12
2018-09-05T23:34:25.974Z,2.12
2018-09-05T23:36:55.083Z,2.15
2018-09-05T23:39:24.046Z,2.22
2018-09-05T23:41:52.990Z,2.02
2018-09-05T23:44:21.916Z,2.37
2018-09-05T23:46:50.887Z,2.20
2018-09-05T23:49:19.800Z,2.37
2018-09-05T23:51:48.751Z,2.12
2018-09-05T23:54:17.751Z,2.10
2018-09-05T23:56:46.677Z,2.15
2018-09-05T23:59:15.663Z,2.70
